createdAt,value
2022-07-26T00:01:16.359Z,99784.78
2022-07-26T00:03:42.876Z,99783.75
2022-07-26T00:06:09.364Z,99782.91
2022-07-26T00:08:35.910Z,99788.28
2022-07-26T00:11:07.108Z,99796.38
2022-07-26T00:13:34.450Z,99778.56
2022-07-26T00:16:01.691Z,99792.66
2022-07-26T00:18:28.300Z,99788.28
2022-07-26T00:20:55.557Z,99799.06
2022-07-26T00:23:22.378Z,99786.66
2022-07-26T00:25:48.862Z,99783.94
2022-07-26T00:28:15.310Z,99779.56
2022-07-26T00:30:42.320Z,99793.91
2022-07-26T00:33:08.837Z,99797.44
2022-07-26T00:35:35.303Z,99790.59
2022-07-26T00:38:01.751Z,99799.06
2022-07-26T00:40:28.277Z,99801.78
2022-07-26T00:42:54.844Z,99800.94
2022-07-26T00:45:21.611Z,99795.38
2022-07-26T00:47:48.092Z,99799.94
2022-07-26T00:50:17.152Z,99798.25
2022-07-26T00:52:45.746Z,99798.25
2022-07-26T00:55:12.821Z,99704.59
2022-07-26T00:57:40.706Z,99805.31
2022-07-26T01:00:11.677Z,99804.28
2022-07-26T01:02:38.817Z,99796.19
2022-07-26T01:05:10.068Z,99800.56
2022-07-26T01:07:38.324Z,99802.19
2022-07-26T01:10:07.168Z,99792.47
2022-07-26T01:12:33.576Z,99804.06
2022-07-26T01:15:00.178Z,99809.47
2022-07-26T01:17:26.664Z,99804.28
2022-07-26T01:19:53.122Z,99791.19
2022-07-26T01:22:19.581Z,99818.78
2022-07-26T01:24:46.064Z,99799.06
2022-07-26T01:27:12.507Z,99815.06
2022-07-26T01:29:39.092Z,99811.53
2022-07-26T01:32:06.261Z,99822.13
2022-07-26T01:34:32.756Z,99815.88
2022-07-26T01:36:59.712Z,99821.50
2022-07-26T01:39:26.499Z,99825.00
2022-07-26T01:41:53.431Z,99826.03
2022-07-26T01:44:20.156Z,99825.41
2022-07-26T01:46:46.612Z,99824.38
2022-07-26T01:49:13.230Z,99697.28
2022-07-26T01:51:39.747Z,99827.06
2022-07-26T01:54:06.818Z,99823.56
2022-07-26T01:56:33.605Z,99822.94
2022-07-26T01:59:00.097Z,99837.84
2022-07-26T02:01:39.668Z,99834.13
2022-07-26T02:04:08.252Z,99841.56
2022-07-26T02:06:35.125Z,99837.03
2022-07-26T02:09:01.899Z,99846.97
2022-07-26T02:11:28.653Z,99849.66
2022-07-26T02:13:55.109Z,99860.25
2022-07-26T02:16:21.634Z,99856.72
2022-07-26T02:18:48.100Z,99864.00
2022-07-26T02:21:14.564Z,99869.38
2022-07-26T02:23:41.855Z,99851.28
2022-07-26T02:26:08.767Z,99866.69
2022-07-26T02:28:35.222Z,99872.06
2022-07-26T02:31:01.773Z,99876.59
2022-07-26T02:33:28.638Z,99870.19
2022-07-26T02:35:55.164Z,99870.19
2022-07-26T02:38:21.631Z,99878.47
2022-07-26T02:40:50.564Z,99876.59
2022-07-26T02:43:17.174Z,99889.25
2022-07-26T02:45:43.727Z,99896.31
2022-07-26T02:48:10.266Z,99898.38
2022-07-26T02:50:36.981Z,99884.66
2022-07-26T02:53:03.648Z,99876.78
2022-07-26T02:55:30.476Z,99879.03
2022-07-26T02:57:56.967Z,99912.28
2022-07-26T03:00:26.115Z,99910.63
2022-07-26T03:02:52.884Z,99916.84
2022-07-26T03:05:20.099Z,99918.72
2022-07-26T03:07:46.956Z,99917.91
2022-07-26T03:10:13.812Z,99914.34
2022-07-26T03:12:40.453Z,99913.09
2022-07-26T03:15:07.418Z,99918.72
2022-07-26T03:17:33.870Z,99919.50
2022-07-26T03:20:00.415Z,99933.22
2022-07-26T03:22:26.875Z,99935.91
2022-07-26T03:24:53.392Z,99919.91
2022-07-26T03:27:19.840Z,99942.34
2022-07-26T03:29:46.317Z,99947.72
2022-07-26T03:32:12.958Z,99949.59
2022-07-26T03:34:39.425Z,99943.78
2022-07-26T03:37:05.944Z,99952.28
2022-07-26T03:39:32.456Z,99961.22
2022-07-26T03:41:58.948Z,99955.00
2022-07-26T03:44:25.409Z,99947.72
2022-07-26T03:46:51.859Z,99946.09
2022-07-26T03:49:18.457Z,99954.16
2022-07-26T03:51:45.254Z,99958.69
2022-07-26T03:54:12.102Z,99956.88
2022-07-26T03:56:40.310Z,99967.66
2022-07-26T03:59:09.407Z,99945.16
2022-07-26T04:01:41.700Z,99957.66
2022-07-26T04:04:09.775Z,99971.34
2022-07-26T04:06:37.088Z,99964.94
2022-07-26T04:09:06.043Z,99943.06
2022-07-26T04:11:33.525Z,99974.88
2022-07-26T04:14:00.649Z,99955.94
2022-07-26T04:16:27.469Z,99968.66
2022-07-26T04:18:54.687Z,99979.44
2022-07-26T04:21:21.403Z,99978.63
2022-07-26T04:23:51.366Z,99975.09
2022-07-26T04:26:19.215Z,99982.13
2022-07-26T04:28:45.651Z,99984.19
2022-07-26T04:31:12.571Z,99985.03
2022-07-26T04:33:39.142Z,99990.41
2022-07-26T04:36:05.897Z,99990.41
2022-07-26T04:38:32.381Z,99996.03
2022-07-26T04:40:58.881Z,99996.03
2022-07-26T04:43:25.706Z,99981.25
2022-07-26T04:45:52.618Z,99982.25
2022-07-26T04:48:19.182Z,99986.03
2022-07-26T04:50:45.653Z,99997.44
2022-07-26T04:53:12.169Z,100000.38
2022-07-26T04:55:38.815Z,100009.50
2022-07-26T04:58:05.465Z,99985.41
2022-07-26T05:00:32.082Z,100006.81
2022-07-26T05:03:00.542Z,100012.19
2022-07-26T05:05:29.601Z,100018.41
2022-07-26T05:07:58.157Z,100024.00
2022-07-26T05:10:35.267Z,100019.41
2022-07-26T05:13:07.544Z,100024.63
2022-07-26T05:15:36.641Z,100036.44
2022-07-26T05:18:06.726Z,100046.19
2022-07-26T05:20:34.532Z,100034.78
2022-07-26T05:23:01.192Z,100040.16
2022-07-26T05:25:27.723Z,100016.47
2022-07-26T05:27:54.299Z,100036.63
2022-07-26T05:30:21.165Z,100042.84
2022-07-26T05:32:47.755Z,100027.66
2022-07-26T05:35:14.579Z,100049.28
2022-07-26T05:37:41.072Z,100048.25
2022-07-26T05:40:08.046Z,100054.69
2022-07-26T05:42:34.540Z,100050.06
2022-07-26T05:45:01.111Z,100055.50
2022-07-26T05:47:27.660Z,100062.53
2022-07-26T05:49:55.176Z,100067.94
2022-07-26T05:52:22.688Z,100066.47
2022-07-26T05:54:49.169Z,100074.56
2022-07-26T05:57:15.651Z,100087.03
2022-07-26T05:59:42.145Z,100082.63
2022-07-26T06:02:08.690Z,100089.72
2022-07-26T06:04:35.651Z,100082.44
2022-07-26T06:07:02.270Z,100086.16
2022-07-26T06:09:28.825Z,100065.38
2022-07-26T06:11:55.287Z,100076.25
2022-07-26T06:14:22.612Z,100080.78
2022-07-26T06:16:49.744Z,100080.72
2022-07-26T06:19:16.663Z,100096.13
2022-07-26T06:21:45.557Z,100081.38
2022-07-26T06:24:12.788Z,100101.50
2022-07-26T06:26:39.862Z,100099.84
2022-07-26T06:29:06.411Z,100118.50
2022-07-26T06:31:33.091Z,100108.75
2022-07-26T06:33:59.594Z,100114.16
2022-07-26T06:36:30.083Z,100117.69
2022-07-26T06:38:57.257Z,100109.59
2022-07-26T06:41:23.699Z,100125.56
2022-07-26T06:43:50.205Z,100093.91
2022-07-26T06:46:16.967Z,100134.66
2022-07-26T06:48:47.528Z,100143.81
2022-07-26T06:51:19.392Z,100141.94
2022-07-26T06:53:45.826Z,100127.59
2022-07-26T06:56:14.871Z,100154.41
2022-07-26T06:58:42.127Z,100140.06
2022-07-26T07:01:08.634Z,100148.78
2022-07-26T07:03:35.310Z,100140.59
2022-07-26T07:06:01.864Z,100153.34
2022-07-26T07:08:29.040Z,100160.63
2022-07-26T07:10:56.694Z,100157.09
2022-07-26T07:13:23.314Z,100152.06
2022-07-26T07:15:49.785Z,100158.75
2022-07-26T07:18:16.270Z,100154.19
2022-07-26T07:20:42.727Z,100143.34
2022-07-26T07:23:09.157Z,100142.06
2022-07-26T07:25:35.697Z,100162.06
2022-07-26T07:28:02.139Z,100165.81
2022-07-26T07:30:28.812Z,100160.44
2022-07-26T07:32:56.587Z,100162.25
2022-07-26T07:35:23.552Z,100134.38
2022-07-26T07:37:53.578Z,100123.56
2022-07-26T07:40:20.893Z,100156.69
2022-07-26T07:42:47.554Z,100156.69
2022-07-26T07:45:14.040Z,100161.06
2022-07-26T07:47:40.543Z,100171.84
2022-07-26T07:50:07.625Z,100165.41
2022-07-26T07:52:34.170Z,100168.09
2022-07-26T07:55:21.906Z,100177.03
2022-07-26T07:57:47.072Z,100181.59
2022-07-26T08:00:16.083Z,100178.84
2022-07-26T08:02:42.801Z,100188.66
2022-07-26T08:05:14.328Z,100194.06
2022-07-26T08:07:42.294Z,100180.56
2022-07-26T08:10:09.672Z,100161.56
2022-07-26T08:12:36.210Z,100183.28
2022-07-26T08:15:07.305Z,100181.19
2022-07-26T08:17:34.616Z,100170.34
2022-07-26T08:20:01.863Z,100174.09
2022-07-26T08:22:28.385Z,100187.44
2022-07-26T08:24:54.957Z,100183.69
2022-07-26T08:27:21.483Z,100201.56
2022-07-26T08:29:47.949Z,100182.00
2022-07-26T08:32:14.627Z,100207.78
2022-07-26T08:34:41.100Z,100196.47
2022-07-26T08:37:17.231Z,100209.81
2022-07-26T08:39:45.112Z,100199.81
2022-07-26T08:42:22.502Z,100218.56
2022-07-26T08:44:50.239Z,100223.94
2022-07-26T08:47:35.384Z,100201.03
2022-07-26T08:50:06.088Z,100219.97
2022-07-26T08:52:32.636Z,100222.91
2022-07-26T08:54:59.087Z,100208.59
2022-07-26T08:57:25.511Z,100210.41
2022-07-26T09:00:30.072Z,100228.94
2022-07-26T09:02:58.487Z,100239.06
2022-07-26T09:05:31.048Z,100231.84
2022-07-26T09:07:58.284Z,100223.31
2022-07-26T09:10:25.256Z,100216.63
2022-07-26T09:12:56.627Z,100226.47
2022-07-26T09:15:26.047Z,100234.31
2022-07-26T09:17:55.001Z,100244.09
2022-07-26T09:20:27.940Z,100231.63
2022-07-26T09:23:03.594Z,100242.22
2022-07-26T09:25:38.927Z,100248.44
2022-07-26T09:28:29.619Z,100254.66
2022-07-26T09:30:59.228Z,100262.75
2022-07-26T09:33:26.634Z,100275.41
2022-07-26T09:36:05.792Z,100281.63
2022-07-26T09:38:42.659Z,100276.22
2022-07-26T09:41:22.556Z,100281.63
2022-07-26T09:43:53.675Z,100275.41
2022-07-26T09:46:22.105Z,100265.44
2022-07-26T09:51:41.240Z,100273.34
2022-07-26T09:54:09.590Z,100280.63
2022-07-26T09:56:42.149Z,100288.53
2022-07-26T09:59:09.425Z,100312.78
2022-07-26T10:01:35.988Z,100307.41
2022-07-26T10:04:02.535Z,100309.03
2022-07-26T10:06:30.600Z,100309.88
2022-07-26T10:08:57.303Z,100305.72
2022-07-26T10:11:25.609Z,100309.88
2022-07-26T10:13:52.111Z,100299.94
2022-07-26T10:16:34.491Z,100307.81
2022-07-26T10:19:04.192Z,100287.66
2022-07-26T10:21:30.921Z,100287.06
2022-07-26T10:23:59.811Z,100301.59
2022-07-26T10:26:32.027Z,100306.81
2022-07-26T10:29:17.020Z,100309.09
2022-07-26T10:31:45.259Z,100333.56
2022-07-26T10:34:31.810Z,100325.13
2022-07-26T10:37:00.524Z,100318.69
2022-07-26T10:39:27.330Z,100310.59
2022-07-26T10:42:01.174Z,100292.81
2022-07-26T10:44:29.931Z,100314.34
2022-07-26T10:47:08.270Z,100312.47
2022-07-26T10:49:52.417Z,100325.78
2022-07-26T10:52:21.888Z,100323.91
2022-07-26T10:54:57.283Z,100325.38
2022-07-26T10:57:27.894Z,100312.94
2022-07-26T10:59:58.463Z,100323.72
2022-07-26T11:02:32.154Z,100305.59
2022-07-26T11:05:00.925Z,100310.03
2022-07-26T11:07:31.443Z,100333.09
2022-07-26T11:09:59.428Z,100328.34
2022-07-26T11:12:25.909Z,100331.06
2022-07-26T11:14:54.167Z,100331.22
2022-07-26T11:17:28.352Z,100345.53
2022-07-26T11:19:55.829Z,100341.84
2022-07-26T11:22:22.953Z,100370.47
2022-07-26T11:24:49.463Z,100348.25
2022-07-26T11:27:15.898Z,100365.47
2022-07-26T11:29:42.395Z,100343.25
2022-07-26T11:32:18.791Z,100345.16
2022-07-26T11:34:46.440Z,100310.09
2022-07-26T11:37:13.597Z,100356.38
2022-07-26T11:39:40.444Z,100358.06
2022-07-26T11:42:09.183Z,100361.59
2022-07-26T11:44:36.394Z,100348.31
2022-07-26T11:47:12.529Z,100353.28
2022-07-26T11:50:01.180Z,100347.84
2022-07-26T11:52:30.028Z,100369.28
2022-07-26T11:54:56.454Z,100368.06
2022-07-26T11:57:28.827Z,100368.66
2022-07-26T11:59:58.172Z,100354.47
2022-07-26T12:02:24.729Z,100379.25
2022-07-26T12:05:19.237Z,100374.50
2022-07-26T12:08:04.991Z,100395.03
2022-07-26T12:10:31.898Z,100377.50
2022-07-26T12:13:07.509Z,100420.19
2022-07-26T12:15:53.056Z,100412.09
2022-07-26T12:18:28.100Z,100394.03
2022-07-26T12:21:03.903Z,100386.78
2022-07-26T12:23:42.324Z,100378.69
2022-07-26T12:26:26.278Z,100386.13
2022-07-26T12:28:53.395Z,100387.81
2022-07-26T12:31:28.022Z,100384.06
2022-07-26T12:33:55.399Z,100384.06
2022-07-26T12:36:28.434Z,100369.56
2022-07-26T12:38:59.486Z,100375.78
2022-07-26T12:41:37.220Z,100372.88
2022-07-26T12:44:05.325Z,100333.94
2022-07-26T12:46:35.590Z,100373.09
2022-07-26T12:49:02.714Z,100398.19
2022-07-26T12:51:29.316Z,100414.38
2022-07-26T12:53:55.791Z,100410.03
2022-07-26T12:56:22.242Z,100408.34
2022-07-26T12:58:48.685Z,100405.66
2022-07-26T13:01:15.303Z,100398.97
2022-07-26T13:03:41.806Z,100411.69
2022-07-26T13:06:08.299Z,100407.75
2022-07-26T13:08:34.776Z,100410.28
2022-07-26T13:11:01.304Z,100398.66
2022-07-26T13:13:27.836Z,100404.06
2022-07-26T13:15:54.286Z,100402.00
2022-07-26T13:18:20.826Z,100378.72
2022-07-26T13:20:47.371Z,100383.06
2022-07-26T13:23:21.700Z,100390.81
2022-07-26T13:25:49.863Z,100397.03
2022-07-26T13:28:16.997Z,100401.78
2022-07-26T13:30:44.991Z,100409.88
2022-07-26T13:33:12.167Z,100407.00
2022-07-26T13:35:40.228Z,100409.06
2022-07-26T13:38:08.543Z,100400.13
2022-07-26T13:40:35.058Z,100387.41
2022-07-26T13:43:01.635Z,100392.28
2022-07-26T13:45:29.097Z,100405.00
2022-07-26T13:47:55.929Z,100397.56
2022-07-26T13:50:22.572Z,100412.50
2022-07-26T13:52:49.113Z,100423.31
2022-07-26T13:55:15.571Z,100430.41
2022-07-26T13:57:56.109Z,100442.84
2022-07-26T14:00:25.590Z,100409.50
2022-07-26T14:02:52.179Z,100437.03
2022-07-26T14:05:20.188Z,100422.53
2022-07-26T14:07:46.639Z,100425.06
2022-07-26T14:10:13.110Z,100414.19
2022-07-26T14:12:40.728Z,100428.03
2022-07-26T14:15:13.028Z,100436.94
2022-07-26T14:17:44.875Z,100423.38
2022-07-26T14:20:11.476Z,100411.75
2022-07-26T14:22:37.933Z,100422.09
2022-07-26T14:25:05.931Z,100452.97
2022-07-26T14:27:32.942Z,100449.22
2022-07-26T14:29:59.515Z,100442.34
2022-07-26T14:32:26.082Z,100442.44
2022-07-26T14:34:52.791Z,100455.19
2022-07-26T14:37:42.663Z,100452.97
2022-07-26T14:40:07.363Z,100453.16
2022-07-26T14:42:34.251Z,100440.19
2022-07-26T14:45:00.731Z,100454.09
2022-07-26T14:47:27.210Z,100444.25
2022-07-26T14:49:53.644Z,100456.88
2022-07-26T14:52:20.132Z,100467.69
2022-07-26T14:54:46.625Z,100483.88
2022-07-26T14:57:13.070Z,100470.53
2022-07-26T14:59:39.527Z,100462.19
2022-07-26T15:02:06.378Z,100426.00
2022-07-26T15:04:33.301Z,100487.47
2022-07-26T15:06:59.886Z,100501.44
2022-07-26T15:09:26.480Z,100478.78
2022-07-26T15:11:53.087Z,100472.75
2022-07-26T15:14:19.652Z,100460.66
2022-07-26T15:16:46.322Z,100480.31
2022-07-26T15:19:12.897Z,100481.16
2022-07-26T15:21:39.417Z,100481.16
2022-07-26T15:24:06.121Z,100472.03
2022-07-26T15:26:32.590Z,100474.53
2022-07-26T15:28:59.075Z,100476.38
2022-07-26T15:31:36.805Z,100475.56
2022-07-26T15:34:07.313Z,100473.00
2022-07-26T15:36:34.187Z,100446.72
2022-07-26T15:39:15.573Z,100482.19
2022-07-26T15:41:43.662Z,100488.81
2022-07-26T15:44:11.524Z,100458.41
2022-07-26T15:46:39.251Z,100476.66
2022-07-26T15:49:06.698Z,100472.38
2022-07-26T15:51:33.413Z,100479.81
2022-07-26T15:53:59.947Z,100476.50
2022-07-26T15:56:26.432Z,100474.16
2022-07-26T15:58:52.917Z,100463.75
2022-07-26T16:01:19.531Z,100462.06
2022-07-26T16:03:47.287Z,100478.25
2022-07-26T16:06:13.707Z,100467.69
2022-07-26T16:08:58.945Z,100479.69
2022-07-26T16:11:27.290Z,100481.72
2022-07-26T16:14:01.704Z,100481.09
2022-07-26T16:16:30.279Z,100482.09
2022-07-26T16:18:57.524Z,100475.41
2022-07-26T16:21:24.664Z,100474.19
2022-07-26T16:23:51.586Z,100465.25
2022-07-26T16:26:18.713Z,100474.41
2022-07-26T16:28:45.270Z,100468.47
2022-07-26T16:31:11.829Z,100472.66
2022-07-26T16:33:38.541Z,100483.06
2022-07-26T16:36:12.818Z,100467.19
2022-07-26T16:38:39.300Z,100485.50
2022-07-26T16:41:05.802Z,100492.13
2022-07-26T16:43:32.346Z,100490.47
2022-07-26T16:45:59.139Z,100494.38
2022-07-26T16:48:25.647Z,100505.72
2022-07-26T16:50:52.135Z,100501.19
2022-07-26T16:53:18.599Z,100492.03
2022-07-26T16:55:45.364Z,100475.72
2022-07-26T16:58:11.892Z,100490.75
2022-07-26T17:00:38.413Z,100504.69
2022-07-26T17:03:04.925Z,100519.19
2022-07-26T17:05:31.364Z,100491.41
2022-07-26T17:07:58.260Z,100491.41
2022-07-26T17:10:25.422Z,100484.13
2022-07-26T17:12:52.106Z,100480.78
2022-07-26T17:15:18.629Z,100481.81
2022-07-26T17:17:48.638Z,100483.69
2022-07-26T17:20:15.636Z,100483.69
2022-07-26T17:22:42.104Z,100473.91
2022-07-26T17:25:08.883Z,100487.22
2022-07-26T17:27:37.969Z,100484.53
2022-07-26T17:30:07.027Z,100489.91
2022-07-26T17:32:34.111Z,100504.63
2022-07-26T17:35:00.628Z,100508.16
2022-07-26T17:37:27.126Z,100505.47
2022-07-26T17:39:55.399Z,100494.03
2022-07-26T17:42:24.122Z,100491.16
2022-07-26T17:44:51.216Z,100481.03
2022-07-26T17:47:29.309Z,100483.81
2022-07-26T17:52:49.064Z,100487.63
2022-07-26T17:55:16.065Z,100474.66
2022-07-26T17:57:42.653Z,100496.72
2022-07-26T18:00:10.062Z,100494.03
2022-07-26T18:02:37.031Z,100479.06
2022-07-26T18:05:04.107Z,100491.50
2022-07-26T18:07:30.656Z,100484.28
2022-07-26T18:09:57.162Z,100481.75
2022-07-26T18:12:23.640Z,100462.34
2022-07-26T18:14:50.102Z,100479.25
2022-07-26T18:17:16.765Z,100448.59
2022-07-26T18:19:43.307Z,100477.59
2022-07-26T18:22:09.740Z,100477.59
2022-07-26T18:24:36.195Z,100478.59
2022-07-26T18:27:02.645Z,100482.34
2022-07-26T18:29:29.078Z,100483.34
2022-07-26T18:31:58.509Z,100480.66
2022-07-26T18:34:25.058Z,100469.78
2022-07-26T18:36:51.681Z,100489.78
2022-07-26T18:39:18.191Z,100489.78
2022-07-26T18:41:44.868Z,100481.13
2022-07-26T18:44:12.695Z,100497.03
2022-07-26T18:46:39.775Z,100500.75
2022-07-26T18:49:07.153Z,100499.25
2022-07-26T18:51:33.831Z,100499.09
2022-07-26T18:54:00.751Z,100508.00
2022-07-26T18:56:27.233Z,100498.25
2022-07-26T18:58:53.674Z,100502.16
2022-07-26T19:01:20.246Z,100503.66
2022-07-26T19:03:46.834Z,100498.34
2022-07-26T19:06:13.439Z,100493.28
2022-07-26T19:08:39.985Z,100503.00
2022-07-26T19:11:06.496Z,100503.00
2022-07-26T19:13:32.966Z,100492.13
2022-07-26T19:15:59.476Z,100492.56
2022-07-26T19:18:25.981Z,100503.00
2022-07-26T19:20:52.442Z,100502.16
2022-07-26T19:23:19.094Z,100499.66
2022-07-26T19:25:47.111Z,100490.81
2022-07-26T19:28:13.883Z,100481.78
2022-07-26T19:30:40.488Z,100506.06
2022-07-26T19:33:07.004Z,100509.59
2022-07-26T19:35:33.468Z,100497.13
2022-07-26T19:37:59.980Z,100442.50
2022-07-26T19:40:26.595Z,100506.25
2022-07-26T19:42:53.277Z,100505.41
2022-07-26T19:45:19.783Z,100509.97
2022-07-26T19:47:46.351Z,100374.69
2022-07-26T19:50:13.139Z,100491.72
2022-07-26T19:52:40.399Z,100513.72
2022-07-26T19:55:07.809Z,100512.16
2022-07-26T19:57:34.566Z,100510.25
2022-07-26T20:00:02.621Z,100498.81
2022-07-26T20:02:29.521Z,100520.25
2022-07-26T20:04:56.058Z,100518.59
2022-07-26T20:07:22.619Z,100499.91
2022-07-26T20:09:50.456Z,100501.94
2022-07-26T20:12:18.461Z,100498.25
2022-07-26T20:14:45.383Z,100516.09
2022-07-26T20:17:12.995Z,100509.84
2022-07-26T20:19:40.662Z,100519.81
2022-07-26T20:22:07.206Z,100457.38
2022-07-26T20:24:33.769Z,100506.25
2022-07-26T20:27:00.490Z,100528.91
2022-07-26T20:29:26.969Z,100444.94
2022-07-26T20:31:53.404Z,100502.34
2022-07-26T20:34:19.897Z,100509.22
2022-07-26T20:36:46.864Z,100507.56
2022-07-26T20:39:14.166Z,100504.84
2022-07-26T20:41:40.858Z,100497.59
2022-07-26T20:44:07.804Z,100494.53
2022-07-26T20:46:39.738Z,100507.72
2022-07-26T20:49:07.304Z,100511.44
2022-07-26T20:51:34.071Z,100515.00
2022-07-26T20:54:00.741Z,100504.31
2022-07-26T20:56:27.470Z,100522.59
2022-07-26T20:58:55.407Z,100517.22
2022-07-26T21:01:22.093Z,100513.41
2022-07-26T21:03:48.685Z,100517.22
2022-07-26T21:06:15.169Z,100515.34
2022-07-26T21:08:41.752Z,100513.69
2022-07-26T21:11:08.203Z,100516.38
2022-07-26T21:13:34.754Z,100521.13
2022-07-26T21:16:01.259Z,100465.09
2022-07-26T21:18:29.837Z,100530.03
2022-07-26T21:20:57.314Z,100523.81
2022-07-26T21:23:23.802Z,100514.91
2022-07-26T21:26:00.432Z,100526.53
2022-07-26T21:28:27.585Z,100524.81
2022-07-26T21:30:54.208Z,100500.59
2022-07-26T21:33:20.716Z,100522.34
2022-07-26T21:35:47.244Z,100507.25
2022-07-26T21:38:13.685Z,100515.00
2022-07-26T21:40:40.205Z,100527.91
2022-07-26T21:43:06.747Z,100529.56
2022-07-26T21:45:33.305Z,100533.31
2022-07-26T21:47:59.785Z,100534.31
2022-07-26T21:50:26.341Z,100528.91
2022-07-26T21:52:52.854Z,100522.91
2022-07-26T21:55:19.493Z,100521.78
2022-07-26T21:57:45.983Z,100527.25
2022-07-26T22:00:14.648Z,100536.19
2022-07-26T22:02:41.391Z,100521.13
2022-07-26T22:05:28.453Z,100549.22
2022-07-26T22:07:55.456Z,100520.22
2022-07-26T22:10:22.015Z,100546.13
2022-07-26T22:12:48.482Z,100536.09
2022-07-26T22:15:14.956Z,100546.50
2022-07-26T22:17:41.526Z,100536.75
2022-07-26T22:20:09.104Z,100549.88
2022-07-26T22:22:37.005Z,100540.91
2022-07-26T22:25:05.118Z,100532.94
2022-07-26T22:27:31.629Z,100477.31
2022-07-26T22:29:58.073Z,100528.81
2022-07-26T22:32:26.116Z,100534.88
2022-07-26T22:34:52.552Z,100529.88
2022-07-26T22:37:19.047Z,100533.22
2022-07-26T22:39:45.499Z,100536.91
2022-07-26T22:42:16.145Z,100530.69
2022-07-26T22:44:43.039Z,100530.69
2022-07-26T22:47:09.572Z,100517.41
2022-07-26T22:49:36.193Z,100527.34
2022-07-26T22:52:02.730Z,100514.91
2022-07-26T22:54:29.298Z,100518.44
2022-07-26T22:56:55.810Z,100515.72
2022-07-26T22:59:22.797Z,100512.38
2022-07-26T23:01:49.288Z,100512.38
2022-07-26T23:04:15.845Z,100509.88
2022-07-26T23:06:42.775Z,100516.31
2022-07-26T23:09:11.462Z,100503.19
2022-07-26T23:11:38.506Z,100515.00
2022-07-26T23:14:05.085Z,100523.56
2022-07-26T23:16:31.753Z,100514.34
2022-07-26T23:18:58.268Z,100520.38
2022-07-26T23:21:24.775Z,100522.69
2022-07-26T23:23:51.294Z,100527.44
2022-07-26T23:26:17.780Z,100512.75
2022-07-26T23:28:44.252Z,100522.25
2022-07-26T23:31:13.251Z,100496.78
2022-07-26T23:33:53.240Z,100520.56
2022-07-26T23:36:25.350Z,100511.66
2022-07-26T23:38:52.881Z,100490.16
2022-07-26T23:41:19.526Z,100496.50
2022-07-26T23:43:46.040Z,100501.91
2022-07-26T23:46:12.573Z,100509.97
2022-07-26T23:48:39.140Z,100523.47
2022-07-26T23:51:05.647Z,100511.00
2022-07-26T23:53:32.105Z,100489.44
2022-07-26T23:55:58.590Z,100522.97
2022-07-26T23:58:25.066Z,100449.97
